New Meadows, Idaho
Current Conditions -  °F | °C
As of 7:51 PM on Monday 20 Oct 2014 (Local Time) from KMYL Reporting Station
Scattered Clouds Scattered Clouds  
Wind Chill: 54°   Ceiling: Unl
Heat Index: 54°   Visibility: 10mi
Dew Point: 30°   Wind: 5mph
Humidity: 40%   Direction: 60°ENE
Pressure: 29.81"   Gusts: NA
Location:  44.97°N, 116.28°W
Report Text: KMYL 210151Z AUTO 06004KT 10SM SCT095 12/M01 A2981 RMK AO2 SLP091 T01221011
Loading
Personal Weather Stations






























Interactive Weather Map New forecast layout! Learn more

10-Day Weather Forecast

Advertisements
Track Severe Weather on mobile